Time;durP1;ratioP1;P1;durP2;ratioP2;P2;SDS_P1;SDS_P2;PMS_P1;PMS_P2;Temp;Humidity;BMP_temperature;BMP_pressure;BME280_temperature;BME280_humidity;BME280_pressure;Samples;Min_cycle;Max_cycle;Signal;HPM_P1;HPM_P2
2023/04/02 00:02:25;;;;;;;8.40;5.85;;;;;;;10.72;63.17;100985.94;4960395;28;121688;-78
2023/04/02 00:05:29;;;;;;;8.27;6.20;;;;;;;10.70;62.98;101001.91;4956786;28;117783;-78
2023/04/02 00:08:02;;;;;;;8.75;7.13;;;;;;;10.68;63.13;101003.75;4958388;28;115763;-79
2023/04/02 00:10:35;;;;;;;7.95;7.05;;;;;;;10.65;63.13;101005.69;4964114;28;123288;-78
2023/04/02 00:13:17;;;;;;;9.00;7.07;;;;;;;10.62;62.96;101006.66;4961388;28;123922;-79
2023/04/02 00:15:50;;;;;;;8.07;6.90;;;;;;;10.58;62.93;101012.16;4962668;28;114921;-78
2023/04/02 00:18:20;;;;;;;9.27;7.93;;;;;;;10.56;63.13;101025.47;4960867;28;113624;-78
2023/04/02 00:21:10;;;;;;;10.85;8.70;;;;;;;10.54;63.02;101021.16;4959445;28;126106;-78
2023/04/02 00:23:41;;;;;;;12.05;9.38;;;;;;;10.52;62.88;101026.50;4957115;28;124273;-79
2023/04/02 00:26:35;;;;;;;10.77;8.30;;;;;;;10.47;63.08;101039.06;4967395;28;114026;-78
2023/04/02 00:29:06;;;;;;;11.50;8.13;;;;;;;10.45;63.17;101035.63;4949497;28;112467;-78
2023/04/02 00:31:36;;;;;;;11.80;8.73;;;;;;;10.42;63.23;101041.06;4946434;28;123428;-78
2023/04/02 00:34:07;;;;;;;10.68;8.43;;;;;;;10.40;63.31;101042.94;4958545;28;125458;-79
2023/04/02 00:36:36;;;;;;;12.75;9.00;;;;;;;10.39;63.22;101043.84;4964265;28;113928;-78
2023/04/02 00:39:12;;;;;;;13.50;8.70;;;;;;;10.37;63.16;101045.69;4962954;28;114564;-79
2023/04/02 00:41:45;;;;;;;12.63;8.25;;;;;;;10.35;63.08;101047.53;4959339;28;124542;-79
2023/04/02 00:44:20;;;;;;;10.98;7.80;;;;;;;10.35;63.17;101058.13;4959231;28;124467;-78
2023/04/02 00:46:48;;;;;;;10.70;8.55;;;;;;;10.32;62.99;101051.16;4943011;28;113526;-79
2023/04/02 00:49:25;;;;;;;10.25;7.35;;;;;;;10.31;63.04;101060.03;4960656;28;114701;-79
2023/04/02 00:51:56;;;;;;;11.60;7.75;;;;;;;10.30;63.03;101075.06;4942070;28;124682;-79
2023/04/02 00:54:28;;;;;;;8.32;6.63;;;;;;;10.28;63.03;101076.00;4948025;28;123811;-79
2023/04/02 00:56:57;;;;;;;7.65;5.85;;;;;;;10.25;62.98;101077.00;4940271;28;113496;-79
2023/04/02 00:59:30;;;;;;;8.10;6.22;;;;;;;10.25;63.08;101082.28;4949435;28;114484;-78
2023/04/02 01:02:25;;;;;;;10.50;6.00;;;;;;;10.22;63.25;101086.84;4962031;28;125147;-80
2023/04/02 01:05:01;;;;;;;8.48;6.07;;;;;;;10.22;63.22;101093.00;4945345;28;126693;-79
2023/04/02 01:08:02;;;;;;;8.82;6.43;;;;;;;10.22;63.08;101098.28;4957337;28;113542;-79
2023/04/02 01:10:48;;;;;;;8.35;5.85;;;;;;;10.20;63.13;101105.44;4953378;28;115682;-78
2023/04/02 01:13:34;;;;;;;9.30;6.00;;;;;;;10.17;62.99;101102.91;4957228;28;124995;-79
2023/04/02 01:16:18;;;;;;;9.57;5.78;;;;;;;10.13;62.87;101114.53;4926228;28;122807;-76
2023/04/02 01:18:55;;;;;;;9.20;5.80;;;;;;;10.11;63.09;101111.06;4907281;28;117105;-77
2023/04/02 01:21:35;;;;;;;8.00;5.55;;;;;;;10.10;63.08;101117.31;4928503;28;114648;-77
2023/04/02 01:24:04;;;;;;;7.95;6.10;;;;;;;10.09;63.03;101123.50;4890854;28;123085;-76
2023/04/02 01:27:17;;;;;;;7.70;5.88;;;;;;;10.07;63.00;101138.59;4910380;28;124479;-78
2023/04/02 01:29:54;;;;;;;8.57;6.22;;;;;;;10.04;62.88;101131.63;4901624;28;115084;-78
2023/04/02 01:32:26;;;;;;;8.43;6.30;;;;;;;10.03;63.16;101144.91;4911211;28;114643;-76
2023/04/02 01:35:02;;;;;;;7.55;5.43;;;;;;;10.03;63.07;101144.91;4904493;28;123391;-79
2023/04/02 01:37:33;;;;;;;;;;;;;;;10.03;63.04;101152.84;4911458;28;122147;-75
2023/04/02 01:40:44;;;;;;;5.60;4.00;;;;;;;10.00;62.74;101150.31;4899027;28;114428;-76
2023/04/02 01:43:51;;;;;;;4.93;3.60;;;;;;;9.97;62.73;101155.75;4908677;28;114028;-76
2023/04/02 01:46:41;;;;;;;5.95;3.72;;;;;;;9.93;62.71;101166.44;4898356;28;124930;-77
2023/04/02 01:49:15;;;;;;;5.25;4.10;;;;;;;9.93;62.65;101166.44;4898765;28;123848;-74
2023/04/02 01:51:45;;;;;;;5.60;3.78;;;;;;;9.91;62.59;101173.56;4898254;28;114675;-75
2023/04/02 01:54:16;;;;;;;8.27;4.22;;;;;;;9.92;62.65;101169.97;4865732;28;115137;-75
2023/04/02 01:56:46;;;;;;;6.82;4.22;;;;;;;9.94;62.60;101167.28;4900930;28;124024;-74
2023/04/02 01:59:17;;;;;;;6.38;4.57;;;;;;;9.93;62.82;101177.03;4882663;28;123518;-70
2023/04/02 02:01:51;;;;;;;8.00;5.55;;;;;;;9.92;62.59;101180.56;4884582;28;113568;-70
2023/04/02 02:04:19;;;;;;;8.57;5.60;;;;;;;9.91;62.71;101194.72;4897165;28;114072;-70
2023/04/02 02:06:46;;;;;;;8.43;5.57;;;;;;;9.89;62.69;101201.88;4902118;28;123440;-69
2023/04/02 02:09:22;;;;;;;8.85;5.78;;;;;;;9.87;62.59;101209.00;4897220;28;124957;-70
2023/04/02 02:11:49;;;;;;;;;;;;;;;9.84;62.64;101209.09;4879460;28;113292;-70
2023/04/02 02:14:20;;;;;;;7.72;5.07;;;;;;;9.84;62.71;101217.03;4904190;28;114434;-70
2023/04/02 02:16:48;;;;;;;6.10;4.57;;;;;;;9.82;62.51;101221.53;4883261;28;122539;-70
2023/04/02 02:19:26;;;;;;;6.50;4.65;;;;;;;9.81;62.80;101229.50;4899765;28;123512;-71
2023/04/02 02:22:04;;;;;;;6.93;4.97;;;;;;;9.77;62.34;101233.19;4896642;28;115033;-69
2023/04/02 02:24:34;;;;;;;7.30;5.25;;;;;;;9.71;62.16;101235.13;4897056;28;114167;-71
2023/04/02 02:27:23;;;;;;;6.78;4.90;;;;;;;9.67;62.41;101245.88;4898182;28;124848;-69
2023/04/02 02:30:15;;;;;;;7.13;4.72;;;;;;;9.66;62.32;101246.78;4895302;28;123145;-69
2023/04/02 02:33:05;;;;;;;7.95;5.30;;;;;;;9.62;62.31;101246.00;4881234;28;113301;-75
2023/04/02 02:35:39;;;;;;;7.97;4.68;;;;;;;9.60;62.44;101260.22;4869594;28;113805;-70
2023/04/02 02:38:19;;;;;;;7.07;5.00;;;;;;;9.57;62.57;101262.94;4898166;28;124301;-69
2023/04/02 02:40:51;;;;;;;8.10;5.40;;;;;;;9.55;62.64;101260.38;4893669;28;124064;-70
2023/04/02 02:43:19;;;;;;;6.85;5.00;;;;;;;9.55;62.46;101266.53;4869012;28;114340;-70
2023/04/02 02:45:50;;;;;;;10.32;5.20;;;;;;;9.54;62.40;101270.06;4887118;28;114711;-71
2023/04/02 02:48:22;;;;;;;7.45;4.63;;;;;;;9.52;62.28;101271.91;4899571;28;124339;-69
2023/04/02 02:50:50;;;;;;;8.55;4.80;;;;;;;9.52;62.00;101282.50;4879553;28;123778;-70
2023/04/02 02:53:23;;;;;;;8.00;4.93;;;;;;;9.50;62.35;101281.69;4883904;28;114371;-70
2023/04/02 02:55:59;;;;;;;9.38;5.53;;;;;;;9.46;61.90;101293.28;4882207;28;113564;-70
2023/04/02 02:58:33;;;;;;;6.93;4.75;;;;;;;9.42;61.76;101296.94;4868286;28;123381;-70
2023/04/02 03:01:19;;;;;;;7.13;4.72;;;;;;;9.38;61.86;101305.91;4886253;28;123296;-70
2023/04/02 03:03:53;;;;;;;7.03;4.50;;;;;;;9.36;62.12;101310.34;4901212;28;113417;-69
2023/04/02 03:06:23;;;;;;;7.88;5.00;;;;;;;9.35;62.11;101311.28;4899123;28;114708;-70
2023/04/02 03:09:14;;;;;;;6.05;4.22;;;;;;;9.32;62.03;101312.25;4881153;28;123749;-70
2023/04/02 03:12:07;;;;;;;7.60;4.55;;;;;;;9.31;61.68;101314.94;4899130;28;123891;-69
2023/04/02 03:14:44;;;;;;;7.22;4.70;;;;;;;9.26;61.57;101327.41;4900428;28;112797;-69
2023/04/02 03:17:20;;;;;;;8.02;4.80;;;;;;;9.22;61.40;101331.09;4900127;28;113165;-70
2023/04/02 03:20:00;;;;;;;7.07;4.72;;;;;;;9.18;61.35;101334.75;4881719;28;123776;-70
2023/04/02 03:22:44;;;;;;;7.63;4.65;;;;;;;9.14;61.86;101340.09;4896358;28;123098;-70
2023/04/02 03:25:27;;;;;;;6.38;4.32;;;;;;;9.15;61.88;101347.13;4900372;28;113992;-70
2023/04/02 03:28:08;;;;;;;8.27;4.90;;;;;;;9.16;62.26;101354.13;4884605;28;113726;-70
2023/04/02 03:30:39;;;;;;;11.38;6.57;;;;;;;9.20;62.18;101360.19;4898937;28;124045;-70
2023/04/02 03:33:44;;;;;;;10.57;7.20;;;;;;;9.19;61.94;101362.88;4898626;28;123604;-70
2023/04/02 03:36:31;;;;;;;13.93;7.32;;;;;;;9.14;61.76;101377.09;4882699;28;114467;-70
2023/04/02 03:39:19;;;;;;;9.85;6.72;;;;;;;9.11;61.80;101377.19;4900798;28;114294;-71
2023/04/02 03:41:55;;;;;;;10.38;6.60;;;;;;;9.08;61.74;101379.94;4906765;28;123033;-70
2023/04/02 03:44:30;;;;;;;9.52;6.57;;;;;;;9.06;61.84;101379.13;4901612;28;123433;-73
2023/04/02 03:47:18;;;;;;;11.93;7.40;;;;;;;9.04;62.03;101386.25;4900427;28;112612;-70
2023/04/02 03:50:19;;;;;;;10.45;6.88;;;;;;;9.01;61.96;101402.16;4892197;28;113840;-70
2023/04/02 03:52:48;;;;;;;12.68;6.97;;;;;;;8.98;61.88;101396.97;4868922;28;122256;-70
2023/04/02 03:55:22;;;;;;;11.40;7.35;;;;;;;8.95;61.54;101413.78;4900190;28;123881;-70
2023/04/02 03:58:02;;;;;;;11.27;7.15;;;;;;;8.91;61.66;101412.16;4892087;28;114316;-70
2023/04/02 04:00:41;;;;;;;11.52;7.28;;;;;;;8.89;61.78;101423.66;4891879;28;113030;-70
2023/04/02 04:03:25;;;;;;;10.55;6.15;;;;;;;8.88;61.75;101436.00;4887497;28;123314;-70
2023/04/02 04:06:07;;;;;;;10.33;6.90;;;;;;;8.86;61.65;101444.88;4897030;28;124079;-70
2023/04/02 04:08:53;;;;;;;10.90;6.80;;;;;;;8.83;61.57;101447.59;4904098;28;114522;-71
2023/04/02 04:11:46;;;;;;;10.98;6.32;;;;;;;8.81;61.71;101446.78;4899383;28;113555;-71
2023/04/02 04:14:26;;;;;;;10.13;6.72;;;;;;;8.77;62.05;101457.41;4870110;28;123304;-71
2023/04/02 04:17:03;;;;;;;11.05;6.30;;;;;;;8.75;61.65;101458.38;4901287;28;123003;-71
2023/04/02 04:19:54;;;;;;;11.45;6.22;;;;;;;8.72;61.71;101469.91;4888925;28;113809;-71
2023/04/02 04:22:33;;;;;;;9.55;6.30;;;;;;;8.71;61.59;101473.44;4904377;28;113532;-71
2023/04/02 04:25:32;;;;;;;10.63;6.35;;;;;;;8.71;61.51;101484.00;4888603;28;124452;-71
2023/04/02 04:28:25;;;;;;;10.85;6.32;;;;;;;8.68;61.37;101488.50;4903418;28;123007;-72
2023/04/02 04:31:08;;;;;;;10.73;6.70;;;;;;;8.65;61.90;101497.38;4886985;28;114662;-71
2023/04/02 04:33:44;;;;;;;13.18;6.80;;;;;;;8.63;61.72;101500.97;4906300;28;115132;-70
2023/04/02 04:36:28;;;;;;;11.93;6.95;;;;;;;8.60;61.50;101507.19;4890461;28;126959;-75
2023/04/02 04:39:45;;;;;;;10.95;6.53;;;;;;;8.58;61.67;101514.28;4889523;28;122887;-70
2023/04/02 04:42:24;;;;;;;8.30;6.07;;;;;;;8.55;61.60;101511.72;4874224;28;113890;-71
2023/04/02 04:45:02;;;;;;;9.52;5.65;;;;;;;8.54;61.68;101518.78;4899123;28;113689;-70
2023/04/02 04:47:54;;;;;;;10.20;5.80;;;;;;;8.53;61.91;101537.28;4904249;28;123416;-71
2023/04/02 04:50:31;;;;;;;10.13;6.30;;;;;;;8.53;61.98;101542.56;4888405;28;123029;-71
2023/04/02 04:53:16;;;;;;;13.40;6.13;;;;;;;8.51;61.55;101544.38;4887281;28;113464;-71
2023/04/02 04:55:47;;;;;;;9.90;5.70;;;;;;;8.49;61.50;101556.75;4903089;28;114120;-71
2023/04/02 04:58:23;;;;;;;10.23;6.25;;;;;;;8.47;61.42;101563.84;4895899;28;123698;-71
2023/04/02 05:01:00;;;;;;;11.68;5.85;;;;;;;8.45;61.24;101578.88;4884802;28;123167;-71
2023/04/02 05:03:49;;;;;;;12.00;6.10;;;;;;;8.43;61.28;101568.34;4892195;28;112708;-72
2023/04/02 05:06:34;;;;;;;9.52;4.25;;;;;;;8.44;61.45;101579.75;4900555;28;113928;-71
2023/04/02 05:09:21;;;;;;;12.07;4.75;;;;;;;8.42;61.63;101592.13;4883094;28;124313;-71
2023/04/02 05:12:17;;;;;;;10.50;4.47;;;;;;;8.44;61.50;101595.59;4896391;28;123541;-71
2023/04/02 05:14:55;;;;;;;7.63;4.07;;;;;;;8.42;61.55;101602.69;4899404;28;114455;-71
2023/04/02 05:18:07;;;;;;;8.40;4.50;;;;;;;8.42;61.49;101602.69;4883631;28;113607;-71
2023/04/02 05:20:44;;;;;;;8.07;4.20;;;;;;;8.37;61.20;101611.56;4842259;29;123247;-71
2023/04/02 05:23:27;;;;;;;8.88;3.88;;;;;;;8.36;61.14;101603.66;4837977;29;123447;-71
2023/04/02 05:26:32;;;;;;;9.00;3.83;;;;;;;8.31;61.31;101624.91;4879154;28;114597;-71
2023/04/02 05:29:18;;;;;;;6.22;3.50;;;;;;;8.31;61.09;101622.25;4873797;28;114230;-71
2023/04/02 05:32:01;;;;;;;5.15;3.53;;;;;;;8.31;61.12;101619.63;4868045;28;123088;-71
2023/04/02 05:34:38;;;;;;;6.00;3.78;;;;;;;8.29;60.72;101618.78;4897633;28;123866;-72
2023/04/02 05:37:17;;;;;;;6.57;3.60;;;;;;;8.28;61.18;101627.59;4887800;28;113506;-71
2023/04/02 05:39:45;;;;;;;5.53;3.33;;;;;;;8.29;60.99;101639.91;4903747;28;113537;-71
2023/04/02 05:42:23;;;;;;;5.97;3.40;;;;;;;8.27;60.69;101641.72;4898939;28;123314;-73
2023/04/02 05:45:27;;;;;;;6.17;3.67;;;;;;;8.27;60.66;101647.00;4892173;28;123208;-71
2023/04/02 05:48:00;;;;;;;7.30;4.15;;;;;;;8.28;60.74;101646.06;4886424;28;113912;-71
2023/04/02 05:50:39;;;;;;;7.88;4.28;;;;;;;8.27;60.76;101652.28;4883361;28;116657;-71
2023/04/02 05:53:20;;;;;;;8.38;4.05;;;;;;;8.25;60.78;101656.72;4885416;28;123982;-71
2023/04/02 05:55:52;;;;;;;7.35;4.38;;;;;;;8.25;60.80;101669.00;4897486;28;124223;-71
2023/04/02 05:58:46;;;;;;;9.35;3.90;;;;;;;8.22;60.19;101674.38;4878986;28;113540;-71
2023/04/02 06:01:46;;;;;;;8.32;4.15;;;;;;;8.15;60.55;101677.13;4882637;28;113223;-71
2023/04/02 06:04:30;;;;;;;7.63;4.28;;;;;;;8.14;60.08;101682.47;4894542;28;124516;-70
2023/04/02 06:07:27;;;;;;;8.25;4.07;;;;;;;8.11;60.33;101687.78;4883285;28;123037;-70
2023/04/02 06:10:05;;;;;;;7.63;3.90;;;;;;;8.09;60.12;101697.53;4898367;28;113267;-70
2023/04/02 06:12:53;;;;;;;12.07;4.40;;;;;;;8.08;60.22;101708.97;4901850;28;113158;-70
2023/04/02 06:15:23;;;;;;;8.68;4.15;;;;;;;8.08;60.43;101720.41;4885992;28;123907;-71
2023/04/02 06:18:05;;;;;;;7.50;3.23;;;;;;;8.08;60.40;101724.78;4906991;28;122761;-71
2023/04/02 06:20:34;;;;;;;8.20;3.58;;;;;;;8.07;60.23;101728.34;4901960;28;114714;-70
2023/04/02 06:23:24;;;;;;;5.57;3.45;;;;;;;8.03;59.88;101731.94;4894440;28;115293;-71
2023/04/02 06:25:58;;;;;;;3.97;2.08;;;;;;;8.00;59.69;101738.13;4886458;28;123093;-71
2023/04/02 06:28:41;;;;;;;7.03;2.53;;;;;;;7.98;60.29;101740.78;4866937;28;123128;-71
2023/04/02 06:31:27;;;;;;;4.00;2.38;;;;;;;7.98;60.13;101746.06;4882764;28;113487;-70
2023/04/02 06:33:55;;;;;;;4.93;2.00;;;;;;;7.97;60.13;101749.63;4880060;28;113799;-71
2023/04/02 06:36:27;;;;;;;8.90;2.47;;;;;;;7.96;59.97;101755.78;4888375;28;123221;-70
2023/04/02 06:39:06;;;;;;;7.33;2.53;;;;;;;7.95;60.29;101761.97;4889794;28;124621;-71
2023/04/02 06:41:33;;;;;;;5.72;2.38;;;;;;;7.97;59.85;101770.72;4909166;28;116415;-71
2023/04/02 06:44:30;;;;;;;5.47;2.47;;;;;;;7.97;59.91;101770.72;4898052;28;113917;-70
2023/04/02 06:47:41;;;;;;;3.00;1.77;;;;;;;7.96;60.03;101787.44;4830649;28;124599;-74
2023/04/02 06:50:15;;;;;;;;;;;;;;;7.96;60.18;101795.34;4880763;28;123185;-75
2023/04/02 06:52:50;;;;;;;4.60;2.08;;;;;;;7.96;60.17;101784.81;4894563;28;115188;-74
2023/04/02 06:55:42;;;;;;;3.63;1.98;;;;;;;7.93;59.94;101800.72;4905604;28;113131;-75
2023/04/02 06:58:09;;;;;;;3.53;1.92;;;;;;;7.90;60.22;101806.03;4893888;28;123809;-74
2023/04/02 07:00:41;;;;;;;4.20;2.08;;;;;;;7.90;59.70;101811.31;4897830;28;123544;-74
2023/04/02 07:03:31;;;;;;;2.58;1.67;;;;;;;7.88;59.76;101822.78;4897720;28;114047;-74
2023/04/02 07:06:12;;;;;;;4.82;1.75;;;;;;;7.86;60.09;101824.59;4902741;28;113901;-75
2023/04/02 07:08:41;;;;;;;4.97;1.75;;;;;;;7.85;59.50;101834.25;4885693;28;123362;-75
2023/04/02 07:11:15;;;;;;;5.78;1.95;;;;;;;7.85;59.83;101860.63;4883179;28;122825;-76
2023/04/02 07:13:48;;;;;;;3.03;1.35;;;;;;;7.85;59.90;101860.63;4878475;28;114302;-70
2023/04/02 07:16:19;;;;;;;3.35;1.52;;;;;;;7.86;59.92;101857.09;4906590;28;114087;-70
2023/04/02 07:18:47;;;;;;;5.63;1.70;;;;;;;7.87;59.63;101861.47;4878507;28;123870;-70
2023/04/02 07:21:15;;;;;;;4.28;1.58;;;;;;;7.86;59.48;101872.94;4892828;28;123000;-70
2023/04/02 07:23:44;;;;;;;7.13;1.55;;;;;;;7.84;59.73;101864.16;4890562;28;113564;-71
2023/04/02 07:26:17;;;;;;;2.50;1.23;;;;;;;7.85;59.84;101868.53;4893198;28;113945;-70
2023/04/02 07:28:44;;;;;;;3.67;1.50;;;;;;;7.86;59.51;101872.94;4892086;28;123947;-70
2023/04/02 07:31:25;;;;;;;3.13;1.52;;;;;;;7.84;59.60;101885.28;4892098;28;123927;-70
2023/04/02 07:33:57;;;;;;;3.33;1.30;;;;;;;7.87;59.62;101887.84;4894891;28;114184;-70
2023/04/02 07:36:29;;;;;;;6.85;1.70;;;;;;;7.88;59.64;101892.22;4893198;28;113657;-70
2023/04/02 07:38:56;;;;;;;2.42;1.40;;;;;;;7.90;59.38;101890.44;4908637;28;123790;-70
2023/04/02 07:41:25;;;;;;;3.85;1.27;;;;;;;7.92;59.17;101893.91;4898211;28;124229;-70
2023/04/02 07:43:52;;;;;;;3.03;1.20;;;;;;;7.95;59.07;101888.59;4893587;28;114567;-71
2023/04/02 07:46:19;;;;;;;3.58;1.33;;;;;;;7.97;59.16;101900.00;4893436;28;113780;-70
2023/04/02 07:48:46;;;;;;;4.38;1.52;;;;;;;7.99;59.28;101906.09;4890768;28;124115;-70
2023/04/02 07:51:25;;;;;;;2.75;1.48;;;;;;;8.02;59.12;101904.31;4903568;28;123947;-70
2023/04/02 07:53:54;;;;;;;2.58;1.30;;;;;;;8.03;58.96;101911.34;4884629;28;114609;-71
2023/04/02 07:56:24;;;;;;;3.95;1.30;;;;;;;8.05;59.21;101914.81;4895150;28;114732;-71
2023/04/02 07:58:51;;;;;;;3.33;1.30;;;;;;;8.09;59.14;101924.41;4900031;28;124785;-70
2023/04/02 08:01:26;;;;;;;2.78;1.35;;;;;;;8.08;58.79;101920.03;4896559;28;123800;-70
2023/04/02 08:03:55;;;;;;;4.70;1.30;;;;;;;8.09;58.96;101922.63;4902543;28;116347;-70
2023/04/02 08:06:24;;;;;;;3.10;1.15;;;;;;;8.11;58.83;101930.53;4897815;28;114742;-70
2023/04/02 08:08:51;;;;;;;2.50;0.90;;;;;;;8.13;58.76;101939.28;4901840;28;124360;-70
2023/04/02 08:11:19;;;;;;;2.90;1.23;;;;;;;8.11;58.69;101935.81;4904012;28;124245;-70
2023/04/02 08:13:47;;;;;;;2.50;1.30;;;;;;;8.11;58.59;101946.38;4904229;28;114026;-70
2023/04/02 08:16:15;;;;;;;3.80;1.20;;;;;;;8.10;58.40;101958.69;4907273;28;114152;-70
2023/04/02 08:18:42;;;;;;;2.53;1.38;;;;;;;8.10;58.46;101953.41;4905790;28;124035;-70
2023/04/02 08:21:10;;;;;;;4.93;1.10;;;;;;;8.13;58.71;101965.69;4907005;28;123826;-70
2023/04/02 08:23:37;;;;;;;3.30;1.10;;;;;;;8.15;58.53;101969.16;4897367;28;114577;-70
2023/04/02 08:26:05;;;;;;;3.20;1.50;;;;;;;8.14;58.54;101976.22;4895748;28;113652;-70
2023/04/02 08:28:34;;;;;;;2.50;1.17;;;;;;;8.17;58.58;101985.84;4905424;28;123777;-69
2023/04/02 08:31:03;;;;;;;3.45;1.10;;;;;;;8.18;58.58;101990.22;4895423;28;123912;-70
2023/04/02 08:33:31;;;;;;;3.25;1.08;;;;;;;8.18;58.61;101995.50;4896915;28;114787;-70
2023/04/02 08:35:58;;;;;;;3.20;1.08;;;;;;;8.19;58.84;101986.69;4894960;28;115793;-70
2023/04/02 08:38:25;;;;;;;1.92;1.00;;;;;;;8.21;58.42;101995.44;4907278;28;123848;-73
2023/04/02 08:40:58;;;;;;;4.57;1.20;;;;;;;8.23;58.62;101998.06;4897571;28;123287;-70
2023/04/02 08:43:58;;;;;;;3.00;1.02;;;;;;;8.23;58.58;102009.50;4881253;28;113411;-70
2023/04/02 08:46:32;;;;;;;1.67;1.10;;;;;;;8.24;58.83;102021.78;4914273;28;114053;-70
2023/04/02 08:49:07;;;;;;;2.10;0.80;;;;;;;8.26;58.65;102025.28;4885028;28;124001;-70
2023/04/02 08:51:36;;;;;;;2.83;1.10;;;;;;;8.30;58.55;102037.53;4904291;28;123976;-71
2023/04/02 08:54:13;;;;;;;2.78;1.02;;;;;;;8.30;58.27;102045.44;4889814;28;115537;-70
2023/04/02 08:56:59;;;;;;;2.65;1.10;;;;;;;8.28;58.32;102049.88;4907198;28;115034;-70
2023/04/02 08:59:35;;;;;;;1.08;0.75;;;;;;;8.27;58.12;102053.44;4894695;28;124017;-70
2023/04/02 09:02:30;;;;;;;5.47;0.93;;;;;;;8.25;58.31;102064.88;4894615;28;124356;-69
2023/04/02 09:05:02;;;;;;;2.58;1.02;;;;;;;8.22;57.95;102071.09;4914828;28;114142;-70
2023/04/02 09:07:31;;;;;;;2.60;1.30;;;;;;;8.19;58.04;102065.84;4903281;28;113877;-70
2023/04/02 09:09:59;;;;;;;2.63;1.00;;;;;;;8.15;57.98;102074.72;4913982;28;123573;-70
2023/04/02 09:12:29;;;;;;;2.85;1.17;;;;;;;8.15;57.78;102072.06;4893813;28;124143;-70
2023/04/02 09:15:06;;;;;;;1.70;1.00;;;;;;;8.14;58.03;102079.13;4895406;28;113912;-70
2023/04/02 09:17:37;;;;;;;1.63;0.80;;;;;;;8.15;57.90;102085.28;4908339;28;113143;-70
2023/04/02 09:20:25;;;;;;;3.30;0.93;;;;;;;8.17;58.33;102080.84;4902951;28;124603;-70
2023/04/02 09:22:54;;;;;;;2.20;1.00;;;;;;;8.22;58.43;102086.94;4907468;28;125453;-70
2023/04/02 09:25:31;;;;;;;1.83;0.90;;;;;;;8.23;58.01;102088.69;4902362;28;114324;-70
2023/04/02 09:28:02;;;;;;;3.42;1.20;;;;;;;8.27;58.29;102095.66;4907515;28;113243;-70
2023/04/02 09:30:32;;;;;;;2.78;1.30;;;;;;;8.29;57.88;102099.13;4907841;28;123983;-70
2023/04/02 09:33:05;;;;;;;3.17;1.20;;;;;;;8.32;57.84;102104.34;4894812;28;124523;-70
2023/04/02 09:35:56;;;;;;;2.40;1.00;;;;;;;8.30;57.92;102100.88;4896637;28;114359;-70
2023/04/02 09:38:29;;;;;;;1.60;0.98;;;;;;;8.32;57.74;102104.34;4903384;28;113765;-70
2023/04/02 09:41:02;;;;;;;2.58;1.10;;;;;;;8.32;57.71;102120.19;4906939;28;124182;-70
2023/04/02 09:43:37;;;;;;;2.00;1.00;;;;;;;8.31;57.73;102113.19;4914743;28;124033;-71
2023/04/02 09:46:24;;;;;;;2.63;0.93;;;;;;;8.32;57.95;102136.03;4902174;28;115048;-70
2023/04/02 09:48:57;;;;;;;1.77;0.90;;;;;;;8.34;57.60;102129.00;4907185;28;114867;-70
2023/04/02 09:51:28;;;;;;;5.20;1.65;;;;;;;8.37;57.75;102142.13;4912989;28;124115;-70
2023/04/02 09:54:02;;;;;;;2.70;0.98;;;;;;;8.38;57.67;102146.50;4887595;28;124245;-71
2023/04/02 09:56:31;;;;;;;3.95;1.02;;;;;;;8.41;57.44;102144.72;4897311;28;114877;-70
2023/04/02 09:59:20;;;;;;;3.75;1.35;;;;;;;8.39;57.21;102153.53;4913394;28;114333;-74
2023/04/02 10:01:53;;;;;;;2.67;0.90;;;;;;;8.38;57.09;102157.06;4895158;28;124335;-74
2023/04/02 10:04:43;;;;;;;4.03;1.23;;;;;;;8.37;57.18;102163.25;4907928;28;124308;-74
2023/04/02 10:07:37;;;;;;;2.92;1.00;;;;;;;8.39;57.32;102169.38;4855180;28;113042;-74
2023/04/02 10:10:35;;;;;;;2.47;0.95;;;;;;;8.41;57.25;102171.13;4895577;28;114062;-74
2023/04/02 10:13:17;;;;;;;1.67;0.90;;;;;;;8.44;56.89;102176.38;4907799;28;124721;-74
2023/04/02 10:16:09;;;;;;;3.72;1.02;;;;;;;8.45;57.28;102173.72;4896664;28;124055;-75
2023/04/02 10:18:48;;;;;;;3.22;0.95;;;;;;;8.48;57.18;102183.38;4894555;28;114676;-69
2023/04/02 10:21:24;;;;;;;2.03;1.00;;;;;;;8.50;56.84;102197.44;4894224;28;114624;-70
2023/04/02 10:23:54;;;;;;;3.25;1.08;;;;;;;8.53;56.78;102197.38;4895998;28;124067;-71
2023/04/02 10:26:33;;;;;;;3.38;1.10;;;;;;;8.55;57.00;102200.84;4905116;28;123840;-70
2023/04/02 10:29:23;;;;;;;3.28;1.30;;;;;;;8.58;56.86;102203.47;4878373;28;113472;-70
2023/04/02 10:31:50;;;;;;;4.00;1.17;;;;;;;8.63;57.16;102213.97;4892997;28;114380;-70
2023/04/02 10:34:57;;;;;;;1.80;0.82;;;;;;;8.68;57.30;102223.56;4884853;28;124052;-75
2023/04/02 10:37:49;;;;;;;2.55;1.38;;;;;;;8.76;57.03;102216.38;4881379;28;123690;-74
2023/04/02 10:40:16;;;;;;;2.05;1.10;;;;;;;8.80;56.75;102221.59;4877599;28;115661;-74
2023/04/02 10:43:21;;;;;;;4.47;1.27;;;;;;;8.82;56.51;102233.06;4896850;28;114893;-76
2023/04/02 10:45:55;;;;;;;3.40;1.25;;;;;;;8.84;56.64;102233.91;4900796;28;124123;-76
2023/04/02 10:49:01;;;;;;;3.10;1.15;;;;;;;8.85;56.38;102230.34;4900634;28;123955;-70
2023/04/02 10:51:37;;;;;;;;;;;;;;;8.87;56.94;102233.84;4895869;28;114167;-70
2023/04/02 10:54:26;;;;;;;1.83;0.90;;;;;;;8.93;56.71;102223.19;4896095;28;113599;-69
2023/04/02 10:57:07;;;;;;;1.75;0.90;;;;;;;8.97;56.85;102230.16;4907079;28;124340;-69
2023/04/02 10:59:39;;;;;;;2.50;1.10;;;;;;;9.03;56.86;102230.06;4912577;28;124378;-69
2023/04/02 11:02:37;;;;;;;1.95;1.05;;;;;;;9.11;56.49;102228.16;4892423;28;114320;-70
2023/04/02 11:05:18;;;;;;;2.40;1.15;;;;;;;9.19;56.23;102229.81;4878498;28;113951;-69
2023/04/02 11:08:24;;;;;;;4.78;1.48;;;;;;;9.22;56.39;102240.34;4893647;28;124775;-69
2023/04/02 11:11:00;;;;;;;4.45;1.10;;;;;;;9.26;56.30;102252.59;4873616;28;124272;-70
2023/04/02 11:13:51;;;;;;;1.75;1.10;;;;;;;9.31;56.38;102256.03;4889589;28;113629;-70
2023/04/02 11:16:19;;;;;;;2.85;1.13;;;;;;;9.37;56.10;102249.78;4901193;28;114167;-70
2023/04/02 11:19:16;;;;;;;1.30;0.82;;;;;;;9.42;56.50;102254.09;4900875;28;123866;-70
2023/04/02 11:21:55;;;;;;;3.22;1.08;;;;;;;9.50;55.98;102268.03;4882234;28;123867;-69
2023/04/02 11:24:32;;;;;;;2.60;0.98;;;;;;;9.53;55.90;102265.34;4892903;28;114045;-70
2023/04/02 11:27:05;;;;;;;4.00;1.13;;;;;;;9.52;55.33;102268.88;4904006;28;114034;-75
2023/04/02 11:29:59;;;;;;;2.97;1.15;;;;;;;9.50;55.47;102262.75;4895280;28;124726;-69
2023/04/02 11:32:48;;;;;;;3.00;1.00;;;;;;;9.48;55.25;102268.97;4883154;28;124206;-70
2023/04/02 11:35:31;;;;;;;1.30;0.70;;;;;;;9.48;55.30;102277.78;4880496;28;115218;-70
2023/04/02 11:38:41;;;;;;;3.03;1.20;;;;;;;9.46;55.15;102292.78;4883625;28;114262;-70
2023/04/02 11:41:08;;;;;;;1.57;1.00;;;;;;;9.46;55.05;102292.78;4898188;28;123830;-69
2023/04/02 11:43:36;;;;;;;5.65;1.35;;;;;;;9.45;55.05;102291.03;4901351;28;124013;-70
2023/04/02 11:46:15;;;;;;;3.70;1.30;;;;;;;9.45;54.98;102301.63;4884421;28;113606;-69
2023/04/02 11:48:43;;;;;;;2.35;0.93;;;;;;;9.44;54.56;102304.31;4897304;28;114022;-70
2023/04/02 11:51:20;;;;;;;2.20;0.80;;;;;;;9.43;55.22;102314.00;4895323;28;123234;-70
2023/04/02 11:53:53;;;;;;;2.20;0.85;;;;;;;9.47;55.31;102315.69;4876864;28;123983;-69
2023/04/02 11:56:27;;;;;;;1.40;0.80;;;;;;;9.49;54.85;102319.19;4900617;28;114339;-69
2023/04/02 11:59:10;;;;;;;1.60;0.80;;;;;;;9.45;54.69;102322.75;4911182;28;114507;-70
2023/04/02 12:01:48;;;;;;;3.25;0.90;;;;;;;9.45;54.79;102330.69;4894785;28;124167;-69
2023/04/02 12:04:33;;;;;;;1.67;0.90;;;;;;;9.46;54.78;102335.09;4886765;28;122856;-69
2023/04/02 12:07:16;;;;;;;1.77;0.70;;;;;;;9.48;54.60;102337.72;4894967;28;114781;-70
2023/04/02 12:09:51;;;;;;;3.08;0.90;;;;;;;9.51;54.59;102333.25;4898206;28;114076;-70
2023/04/02 12:12:28;;;;;;;1.63;0.95;;;;;;;9.54;54.21;102333.19;4895321;28;124291;-69
2023/04/02 12:14:57;;;;;;;1.40;0.75;;;;;;;9.61;54.50;102338.41;4904621;28;123964;-69
2023/04/02 12:17:39;;;;;;;2.35;1.20;;;;;;;9.69;54.50;102336.50;4895383;28;114818;-69
2023/04/02 12:20:08;;;;;;;1.65;0.85;;;;;;;9.81;55.02;102341.56;4895918;28;114381;-69